Time;durP1;ratioP1;P1;durP2;ratioP2;P2;SDS_P1;SDS_P2;PMS_P1;PMS_P2;Temp;Humidity;BMP_temperature;BMP_pressure;BME280_temperature;BME280_humidity;BME280_pressure;Samples;Min_cycle;Max_cycle;Signal;HPM_P1;HPM_P2
2023/06/30 00:01:51;;;;;;;9.05;3.25;;;;;;;17.16;69.98;98978.75;5152373;27;20092;-82
2023/06/30 00:04:35;;;;;;;8.07;3.47;;;;;;;17.06;69.91;98963.47;5152888;27;20042;-82
2023/06/30 00:07:22;;;;;;;6.18;3.20;;;;;;;17.01;70.38;98971.34;5152269;27;20068;-82
2023/06/30 00:10:07;;;;;;;8.73;3.30;;;;;;;16.95;70.34;98959.81;5153071;27;20088;-82
2023/06/30 00:12:51;;;;;;;8.40;3.50;;;;;;;16.92;70.68;98963.78;5137138;27;20104;-83
2023/06/30 00:15:35;;;;;;;7.68;3.10;;;;;;;16.80;71.48;98953.22;5135771;27;20049;-81
2023/06/30 00:18:18;;;;;;;9.80;3.47;;;;;;;17.07;71.02;98954.47;5151300;27;20568;-82
2023/06/30 00:21:03;;;;;;;6.80;2.97;;;;;;;17.21;70.30;98945.19;5151501;27;20049;-82
2023/06/30 00:23:47;;;;;;;5.43;3.20;;;;;;;17.06;70.68;98948.38;5152234;27;20045;-82
2023/06/30 00:26:31;;;;;;;6.20;3.42;;;;;;;16.96;71.36;98943.69;5136831;27;20082;-82
2023/06/30 00:29:15;;;;;;;9.48;3.60;;;;;;;16.83;71.95;98930.72;5136408;27;20087;-82
2023/06/30 00:31:59;;;;;;;8.18;3.28;;;;;;;16.78;71.54;98925.34;5136330;27;20127;-83
2023/06/30 00:34:43;;;;;;;8.63;3.50;;;;;;;16.68;72.17;98939.22;5151844;27;20091;-81
2023/06/30 00:37:27;;;;;;;6.00;3.15;;;;;;;16.62;72.64;98932.22;5151704;27;20061;-82
2023/06/30 00:40:14;;;;;;;5.82;3.45;;;;;;;16.59;72.54;98920.22;5136343;27;20569;-82
2023/06/30 00:43:00;;;;;;;7.30;3.40;;;;;;;16.47;73.45;98924.75;5151473;27;20119;-81
2023/06/30 00:45:44;;;;;;;6.18;3.05;;;;;;;16.42;73.36;98925.50;5136905;27;20041;-82
2023/06/30 00:48:29;;;;;;;6.18;3.05;;;;;;;16.38;74.13;98914.56;5134770;27;20075;-82
2023/06/30 00:51:13;;;;;;;5.40;3.47;;;;;;;16.38;74.15;98906.59;5151216;27;20189;-81
2023/06/30 00:53:57;;;;;;;6.30;3.42;;;;;;;16.26;75.24;98903.19;5149015;27;20134;-82
2023/06/30 00:56:41;;;;;;;5.72;3.28;;;;;;;16.24;74.77;98900.78;5136530;27;20063;-81
2023/06/30 00:59:25;;;;;;;5.18;3.13;;;;;;;16.29;74.97;98902.69;5150648;27;20103;-81
2023/06/30 01:02:16;;;;;;;;;;;;;;;16.30;75.01;98904.31;5136964;27;20050;-80
2023/06/30 01:05:09;;;;;;;6.40;2.80;;;;;;;16.17;75.84;98904.59;5151620;27;20416;-82
2023/06/30 01:08:04;;;;;;;7.43;3.37;;;;;;;16.16;75.78;98898.47;5150494;27;20132;-81
2023/06/30 01:10:49;;;;;;;7.00;3.40;;;;;;;16.13;75.88;98899.78;5135912;27;20055;-80
2023/06/30 01:13:34;;;;;;;7.93;2.97;;;;;;;16.23;75.97;98901.81;5151229;27;20038;-81
2023/06/30 01:16:21;;;;;;;5.90;3.30;;;;;;;15.99;76.72;98893.13;5150990;27;20033;-80
2023/06/30 01:19:28;;;;;;;6.45;3.58;;;;;;;16.28;75.61;98893.16;5136112;27;20099;-80
2023/06/30 01:22:28;;;;;;;4.57;3.25;;;;;;;16.63;74.42;98889.56;5136115;27;20087;-80
2023/06/30 01:25:19;;;;;;;6.03;3.22;;;;;;;16.44;75.13;98882.84;5150963;27;20048;-81
2023/06/30 01:28:03;;;;;;;6.47;3.10;;;;;;;16.32;75.31;98890.84;5135142;27;20432;-82
2023/06/30 01:30:47;;;;;;;8.40;3.67;;;;;;;16.24;75.43;98884.06;5154867;27;20033;-81
2023/06/30 01:33:33;;;;;;;5.53;3.75;;;;;;;15.99;75.67;98872.75;5139765;27;20034;-80
2023/06/30 01:36:17;;;;;;;7.05;3.70;;;;;;;16.23;75.63;98871.88;5138963;27;20079;-80
2023/06/30 01:39:01;;;;;;;6.97;3.45;;;;;;;16.24;75.58;98862.88;5138803;27;20503;-80
2023/06/30 01:41:46;;;;;;;4.18;3.30;;;;;;;16.19;76.01;98860.16;5154455;27;20044;-81
2023/06/30 01:44:30;;;;;;;5.70;3.45;;;;;;;16.33;75.47;98842.94;5139687;27;20499;-80
2023/06/30 01:47:15;;;;;;;8.20;3.67;;;;;;;16.30;75.38;98846.03;5139875;27;20042;-81
2023/06/30 01:50:00;;;;;;;5.70;3.50;;;;;;;16.15;75.56;98837.84;5138789;27;20418;-83
2023/06/30 01:52:44;;;;;;;10.00;3.10;;;;;;;16.01;75.93;98832.81;5155858;27;20091;-81
2023/06/30 01:55:29;;;;;;;6.05;3.30;;;;;;;16.11;75.96;98842.78;5139442;27;20054;-80
2023/06/30 01:58:14;;;;;;;7.30;3.05;;;;;;;16.08;76.12;98854.66;5153663;27;20465;-80
2023/06/30 02:00:58;;;;;;;4.15;3.10;;;;;;;16.06;76.24;98848.78;5154199;27;20373;-80
2023/06/30 02:03:42;;;;;;;8.23;3.20;;;;;;;16.07;76.22;98846.97;5139714;27;20503;-81
2023/06/30 02:06:26;;;;;;;6.65;2.63;;;;;;;16.12;76.27;98834.63;5153980;27;20058;-81
2023/06/30 02:09:12;;;;;;;7.60;3.38;;;;;;;16.12;76.77;98834.63;5138962;27;20148;-79
2023/06/30 02:11:56;;;;;;;6.20;3.28;;;;;;;16.11;76.31;98826.91;5138379;27;20037;-82
2023/06/30 02:14:40;;;;;;;8.73;3.58;;;;;;;16.00;76.73;98839.16;5138813;27;20057;-82
2023/06/30 02:17:28;;;;;;;7.03;3.25;;;;;;;15.95;76.73;98829.25;5139360;27;20049;-82
2023/06/30 02:20:12;;;;;;;7.80;3.40;;;;;;;15.83;77.65;98831.91;5137865;27;20041;-80
2023/06/30 02:22:56;;;;;;;11.05;3.97;;;;;;;15.70;77.68;98826.88;5138552;27;20111;-81
2023/06/30 02:25:40;;;;;;;4.78;3.05;;;;;;;15.62;78.01;98824.59;5154770;27;20087;-80
2023/06/30 02:28:24;;;;;;;7.18;3.30;;;;;;;15.48;78.56;98818.75;5137040;27;20041;-81
2023/06/30 02:31:08;;;;;;;8.88;3.65;;;;;;;15.41;78.86;98814.38;5138992;27;20041;-81
2023/06/30 02:33:53;;;;;;;7.82;3.70;;;;;;;15.40;79.00;98811.97;5153879;27;20556;-81
2023/06/30 02:36:37;;;;;;;4.65;3.50;;;;;;;15.51;78.92;98813.78;5154014;27;20059;-80
2023/06/30 02:39:21;;;;;;;8.20;3.20;;;;;;;15.51;78.99;98811.13;5153394;27;20041;-81
2023/06/30 02:42:05;;;;;;;7.38;3.55;;;;;;;15.60;78.95;98811.59;5152484;27;20046;-80
2023/06/30 02:44:49;;;;;;;7.85;3.70;;;;;;;15.64;78.87;98811.94;5150660;27;20046;-80
2023/06/30 02:47:33;;;;;;;5.60;3.17;;;;;;;15.61;79.01;98796.53;5153606;27;20052;-83
2023/06/30 02:50:17;;;;;;;;;;;;;;;15.85;78.64;98798.06;5153637;27;20387;-84
2023/06/30 02:53:01;;;;;;;7.93;3.83;;;;;;;16.00;78.10;98804.72;5138055;27;19918;-83
2023/06/30 02:55:45;;;;;;;10.25;3.95;;;;;;;16.15;78.02;98806.06;5154023;27;20608;-83
2023/06/30 02:58:30;;;;;;;7.47;3.83;;;;;;;16.25;77.91;98806.22;5153653;27;20503;-83
2023/06/30 03:01:14;;;;;;;9.77;4.32;;;;;;;16.24;78.31;98794.84;5153321;27;20050;-80
2023/06/30 03:03:59;;;;;;;8.85;4.15;;;;;;;16.41;77.97;98794.09;5137881;27;20041;-81
2023/06/30 03:06:43;;;;;;;11.45;3.30;;;;;;;16.66;77.79;98791.03;5138921;27;20045;-81
2023/06/30 03:09:27;;;;;;;8.13;3.65;;;;;;;16.87;77.37;98780.75;5136621;27;20452;-82
2023/06/30 03:12:10;;;;;;;5.25;3.80;;;;;;;16.59;78.54;98786.94;5137495;27;20038;-82
2023/06/30 03:14:54;;;;;;;10.32;3.75;;;;;;;16.72;78.30;98778.66;5154415;27;20065;-82
2023/06/30 03:17:38;;;;;;;10.55;4.35;;;;;;;16.77;78.52;98785.91;5136169;27;20041;-81
2023/06/30 03:20:23;;;;;;;9.90;3.50;;;;;;;16.95;78.10;98783.00;5137871;27;20072;-82
2023/06/30 03:23:07;;;;;;;6.00;3.00;;;;;;;16.95;78.62;98782.19;5153106;27;20095;-82
2023/06/30 03:25:51;;;;;;;6.80;3.50;;;;;;;16.98;79.02;98785.19;5138059;27;20054;-82
2023/06/30 03:28:35;;;;;;;11.48;4.00;;;;;;;16.81;79.92;98774.59;5152140;27;20045;-82
2023/06/30 03:31:20;;;;;;;6.70;3.53;;;;;;;17.03;79.58;98779.16;5152268;27;20457;-82
2023/06/30 03:34:04;;;;;;;8.13;3.55;;;;;;;16.89;80.51;98775.22;5137393;27;20049;-82
2023/06/30 03:36:49;;;;;;;11.68;4.00;;;;;;;16.93;81.13;98774.50;5135852;27;20141;-81
2023/06/30 03:39:33;;;;;;;6.88;4.07;;;;;;;16.90;82.43;98768.88;5149700;27;20103;-81
2023/06/30 03:42:17;;;;;;;11.43;3.83;;;;;;;16.92;82.88;98759.63;5152269;27;20532;-81
2023/06/30 03:45:01;;;;;;;13.43;4.70;;;;;;;17.03;83.23;98765.09;5151924;27;20053;-82
2023/06/30 03:47:47;;;;;;;9.73;3.90;;;;;;;17.07;83.55;98747.66;5150437;27;20071;-81
2023/06/30 03:50:31;;;;;;;5.53;3.80;;;;;;;17.26;83.32;98751.63;5136313;27;20040;-81
2023/06/30 03:53:15;;;;;;;7.57;3.80;;;;;;;17.26;83.46;98748.19;5149702;27;20113;-82
2023/06/30 03:56:00;;;;;;;9.07;4.05;;;;;;;17.19;83.80;98743.03;5137145;27;20099;-82
2023/06/30 03:58:45;;;;;;;8.13;3.97;;;;;;;17.06;84.74;98748.69;5152696;27;20041;-83
2023/06/30 04:01:33;;;;;;;9.95;3.85;;;;;;;17.10;85.25;98752.47;5136678;27;20561;-82
2023/06/30 04:04:17;;;;;;;9.68;4.05;;;;;;;17.07;85.76;98750.28;5137336;27;20415;-81
2023/06/30 04:07:01;;;;;;;19.67;4.63;;;;;;;17.22;85.51;98753.16;5137171;27;20130;-81
2023/06/30 04:09:45;;;;;;;11.95;4.07;;;;;;;17.38;85.09;98742.75;5150813;27;20177;-82
2023/06/30 04:12:29;;;;;;;11.13;3.80;;;;;;;17.36;85.41;98744.84;5137159;27;20388;-83
2023/06/30 04:15:13;;;;;;;12.93;4.78;;;;;;;17.31;85.69;98734.97;5136868;27;20449;-83
2023/06/30 04:17:57;;;;;;;13.38;4.30;;;;;;;17.45;84.88;98730.09;5136198;27;20083;-83
2023/06/30 04:20:42;;;;;;;9.10;4.32;;;;;;;17.21;85.65;98727.69;5135610;27;20103;-83
2023/06/30 04:23:25;;;;;;;13.57;4.32;;;;;;;17.62;85.12;98731.88;5152020;27;20139;-83
2023/06/30 04:26:09;;;;;;;12.15;3.92;;;;;;;17.69;84.22;98727.97;5152219;27;20506;-82
2023/06/30 04:28:53;;;;;;;13.85;4.72;;;;;;;17.93;83.59;98726.91;5136763;27;20038;-83
2023/06/30 04:31:37;;;;;;;11.00;4.40;;;;;;;17.79;83.33;98721.97;5152665;27;20059;-82
2023/06/30 04:34:21;;;;;;;11.45;4.97;;;;;;;18.16;82.23;98730.31;5151713;27;20046;-82
2023/06/30 04:37:05;;;;;;;7.22;4.03;;;;;;;18.15;81.50;98723.41;5136383;27;20052;-82
2023/06/30 04:39:50;;;;;;;8.80;3.97;;;;;;;18.36;81.03;98714.56;5151882;27;20045;-82
2023/06/30 04:42:35;;;;;;;12.52;4.07;;;;;;;18.19;81.04;98713.88;5136380;27;20146;-83
2023/06/30 04:45:19;;;;;;;8.88;3.90;;;;;;;18.36;80.69;98709.25;5136824;27;20090;-83
2023/06/30 04:48:03;;;;;;;10.50;4.40;;;;;;;18.41;80.54;98709.28;5135798;27;20053;-81
2023/06/30 04:50:48;;;;;;;12.10;4.13;;;;;;;18.48;80.48;98698.44;5150464;27;20083;-84
2023/06/30 04:53:32;;;;;;;9.82;4.03;;;;;;;18.34;80.88;98700.72;5152234;27;20548;-84
2023/06/30 04:56:17;;;;;;;9.35;4.18;;;;;;;18.62;80.69;98695.34;5136710;27;20090;-83
2023/06/30 04:59:01;;;;;;;9.25;3.80;;;;;;;18.58;81.39;98708.34;5149456;27;20099;-84
2023/06/30 05:01:45;;;;;;;6.18;3.80;;;;;;;18.53;81.38;98719.72;5151726;27;20415;-83
2023/06/30 05:04:29;;;;;;;8.68;3.65;;;;;;;18.54;81.30;98709.91;5147405;27;20041;-83
2023/06/30 05:07:13;;;;;;;8.77;4.35;;;;;;;18.63;81.09;98716.34;5151475;27;20152;-83
2023/06/30 05:09:57;;;;;;;10.18;4.50;;;;;;;18.56;81.00;98707.78;5151207;27;20045;-84
2023/06/30 05:12:41;;;;;;;6.65;3.85;;;;;;;18.53;80.95;98714.41;5148294;27;20396;-84
2023/06/30 05:15:25;;;;;;;7.30;3.50;;;;;;;18.63;80.54;98708.38;5135219;27;20073;-83
2023/06/30 05:18:08;;;;;;;13.30;3.78;;;;;;;18.60;80.94;98700.13;5135005;27;20111;-83
2023/06/30 05:20:53;;;;;;;4.82;3.45;;;;;;;18.66;80.99;98705.19;5134733;27;20917;-81
2023/06/30 05:23:37;;;;;;;7.28;3.72;;;;;;;18.76;80.37;98695.69;5150589;27;20050;-83
2023/06/30 05:26:21;;;;;;;11.13;3.85;;;;;;;18.57;80.88;98690.78;5148788;27;20533;-83
2023/06/30 05:29:06;;;;;;;7.93;4.22;;;;;;;18.81;80.47;98685.06;5133078;27;20041;-83
2023/06/30 05:31:50;;;;;;;7.85;3.65;;;;;;;18.74;80.95;98679.19;5146404;27;20155;-84
2023/06/30 05:34:34;;;;;;;8.05;3.75;;;;;;;18.81;80.96;98680.56;5136045;27;20045;-84
2023/06/30 05:37:18;;;;;;;8.27;3.45;;;;;;;18.94;80.56;98671.31;5149027;27;20140;-85
2023/06/30 05:40:03;;;;;;;6.50;3.47;;;;;;;18.97;80.33;98664.69;5150193;27;20073;-83
2023/06/30 05:42:47;;;;;;;9.43;3.75;;;;;;;19.05;80.30;98650.09;5134757;27;20168;-84
2023/06/30 05:45:31;;;;;;;;;;;;;;;19.14;80.24;98659.22;5150423;27;20507;-85
2023/06/30 05:48:15;;;;;;;9.73;4.10;;;;;;;19.06;80.39;98649.03;5148578;27;19921;-84
2023/06/30 05:50:59;;;;;;;9.23;3.60;;;;;;;19.20;80.27;98644.84;5133349;27;20042;-83
2023/06/30 05:53:43;;;;;;;9.93;3.97;;;;;;;19.06;80.08;98635.75;5150265;27;20479;-81
2023/06/30 05:56:28;;;;;;;9.27;3.40;;;;;;;18.80;80.60;98638.28;5134703;27;20083;-81
2023/06/30 05:59:12;;;;;;;9.98;3.78;;;;;;;19.03;79.60;98634.44;5148665;27;20038;-81
2023/06/30 06:01:56;;;;;;;6.63;3.47;;;;;;;19.07;79.67;98624.88;5133979;27;20038;-83
2023/06/30 06:04:40;;;;;;;8.43;3.58;;;;;;;19.19;79.31;98624.63;5133936;27;20091;-82
2023/06/30 06:07:24;;;;;;;13.50;3.85;;;;;;;19.12;78.86;98624.88;5150087;27;20061;-83
2023/06/30 06:10:09;;;;;;;15.13;4.28;;;;;;;19.13;78.89;98628.34;5149712;27;20075;-83
2023/06/30 06:12:53;;;;;;;10.32;3.70;;;;;;;19.29;78.80;98633.72;5150131;27;20499;-82
2023/06/30 06:15:36;;;;;;;7.78;3.67;;;;;;;19.50;78.03;98632.69;5134341;27;20038;-85
2023/06/30 06:18:20;;;;;;;10.05;3.95;;;;;;;19.45;78.35;98635.34;5153755;27;20150;-87
2023/06/30 06:21:04;;;;;;;9.55;3.50;;;;;;;19.24;78.49;98632.63;5153303;27;20516;-85
2023/06/30 06:23:48;;;;;;;8.75;3.55;;;;;;;19.15;78.64;98634.19;5139305;27;20053;-85
2023/06/30 06:26:33;;;;;;;5.75;3.30;;;;;;;19.26;78.11;98627.84;5139465;27;20460;-84
2023/06/30 06:29:21;;;;;;;10.00;3.83;;;;;;;19.33;78.18;98629.47;5137830;27;20042;-85
2023/06/30 06:32:06;;;;;;;8.07;3.72;;;;;;;19.36;78.03;98635.06;5152586;27;20056;-83
2023/06/30 06:34:50;;;;;;;7.10;3.63;;;;;;;19.36;78.09;98627.09;5151947;27;20049;-86
2023/06/30 06:37:34;;;;;;;9.98;3.65;;;;;;;19.12;78.34;98634.72;5154370;27;20045;-85
2023/06/30 06:40:18;;;;;;;8.52;3.72;;;;;;;19.33;78.00;98624.16;5139411;27;20079;-83
2023/06/30 06:43:02;;;;;;;9.07;3.72;;;;;;;19.27;78.43;98632.13;5136183;27;20038;-85
2023/06/30 06:45:46;;;;;;;8.85;3.60;;;;;;;19.35;77.99;98628.13;5153806;27;20138;-84
2023/06/30 06:48:30;;;;;;;;;;;;;;;19.26;78.13;98630.53;5152678;27;20114;-83
2023/06/30 06:51:14;;;;;;;8.73;3.75;;;;;;;19.29;78.20;98625.75;5154440;27;19953;-81
2023/06/30 06:53:58;;;;;;;11.93;3.45;;;;;;;19.46;77.81;98626.31;5135528;27;20085;-84
2023/06/30 06:56:42;;;;;;;11.43;3.40;;;;;;;19.64;77.41;98624.19;5154139;27;20432;-84
2023/06/30 06:59:26;;;;;;;7.07;4.10;;;;;;;19.81;76.95;98619.41;5154717;27;20474;-84
2023/06/30 07:02:10;;;;;;;13.52;4.03;;;;;;;19.83;77.15;98617.28;5137042;27;20042;-83
2023/06/30 07:04:54;;;;;;;6.82;4.15;;;;;;;19.91;77.06;98623.16;5154379;27;20396;-85
2023/06/30 07:07:38;;;;;;;11.38;3.88;;;;;;;19.95;76.94;98624.25;5154102;27;20448;-85
2023/06/30 07:10:23;;;;;;;12.25;3.60;;;;;;;19.97;77.12;98611.44;5151230;27;20426;-82
2023/06/30 07:13:07;;;;;;;10.23;4.03;;;;;;;20.10;77.02;98615.44;5138384;27;20041;-82
2023/06/30 07:15:51;;;;;;;10.63;3.67;;;;;;;19.88;76.69;98608.50;5152130;27;20053;-81
2023/06/30 07:18:35;;;;;;;11.50;3.80;;;;;;;20.06;76.48;98607.19;5156096;27;20045;-81
2023/06/30 07:21:20;;;;;;;11.48;4.22;;;;;;;20.19;76.42;98615.69;5154261;27;20057;-81
2023/06/30 07:24:04;;;;;;;6.53;3.47;;;;;;;20.30;76.20;98609.28;5136288;27;20199;-82
2023/06/30 07:26:48;;;;;;;8.45;4.05;;;;;;;20.22;76.04;98604.50;5134008;27;20067;-83
2023/06/30 07:29:33;;;;;;;11.30;3.80;;;;;;;20.26;76.29;98608.25;5151822;27;20549;-82
2023/06/30 07:32:17;;;;;;;15.73;4.15;;;;;;;20.14;76.44;98610.38;5152119;27;20086;-81
2023/06/30 07:35:02;;;;;;;11.93;3.50;;;;;;;20.23;76.78;98595.44;5135474;27;20042;-81
2023/06/30 07:37:47;;;;;;;10.15;4.05;;;;;;;20.19;76.71;98595.19;5148459;27;20175;-80
2023/06/30 07:40:31;;;;;;;14.68;4.30;;;;;;;20.32;76.35;98596.50;5152779;27;20419;-85
2023/06/30 07:43:16;;;;;;;7.03;3.80;;;;;;;20.24;76.42;98584.50;5157054;27;20083;-88
2023/06/30 07:46:00;;;;;;;11.15;4.72;;;;;;;20.45;76.13;98583.69;5159175;27;20122;-89
2023/06/30 07:48:44;;;;;;;11.00;4.15;;;;;;;20.32;76.02;98588.50;5143996;27;20042;-89
2023/06/30 07:51:30;;;;;;;12.57;4.95;;;;;;;20.49;75.90;98579.41;5141794;27;20119;-89
2023/06/30 07:54:15;;;;;;;11.75;3.90;;;;;;;20.55;76.15;98588.97;5143035;27;20044;-89
2023/06/30 07:56:59;;;;;;;10.07;4.07;;;;;;;20.51;76.56;98588.72;5158209;27;20096;-89
2023/06/30 07:59:43;;;;;;;15.80;4.75;;;;;;;20.44;76.08;98588.19;5154844;27;20049;-87
2023/06/30 08:02:27;;;;;;;9.82;4.20;;;;;;;20.56;76.19;98585.22;5153905;27;20538;-86
2023/06/30 08:05:12;;;;;;;9.77;4.32;;;;;;;20.55;76.34;98578.31;5136857;27;20053;-87
2023/06/30 08:07:56;;;;;;;15.38;4.05;;;;;;;20.50;76.07;98581.00;5138611;27;20064;-88
2023/06/30 08:10:40;;;;;;;15.80;4.70;;;;;;;20.62;75.98;98578.03;5153758;27;20544;-76
2023/06/30 08:13:25;;;;;;;11.40;4.15;;;;;;;20.77;76.00;98583.31;5136643;27;20046;-76
2023/06/30 08:16:10;;;;;;;14.63;4.25;;;;;;;20.72;76.11;98571.84;5152277;27;20503;-76
2023/06/30 08:18:54;;;;;;;10.30;4.65;;;;;;;21.03;75.93;98569.88;5135274;27;20038;-76
2023/06/30 08:21:38;;;;;;;10.10;4.50;;;;;;;21.17;75.21;98561.25;5136412;27;20458;-76
2023/06/30 08:24:22;;;;;;;10.93;4.18;;;;;;;21.24;75.00;98559.88;5136855;27;20069;-76
2023/06/30 08:27:07;;;;;;;11.18;4.53;;;;;;;21.32;74.36;98557.69;5133179;27;20123;-76
2023/06/30 08:29:51;;;;;;;8.43;4.18;;;;;;;21.38;74.79;98553.91;5136814;27;20041;-77
2023/06/30 08:32:35;;;;;;;9.82;3.88;;;;;;;21.45;74.70;98551.72;5151707;27;20041;-77
2023/06/30 08:35:19;;;;;;;8.80;4.32;;;;;;;21.39;74.94;98534.13;5149279;27;20113;-76
2023/06/30 08:38:03;;;;;;;11.18;4.15;;;;;;;21.47;74.88;98532.75;5150342;27;20160;-76
2023/06/30 08:40:47;;;;;;;10.85;4.03;;;;;;;21.48;74.35;98523.66;5151908;27;20045;-76
2023/06/30 08:43:31;;;;;;;12.27;4.15;;;;;;;21.59;73.49;98508.34;5134000;27;20042;-76
2023/06/30 08:46:18;;;;;;;11.75;4.10;;;;;;;21.82;73.97;98496.97;5151362;27;20042;-76
2023/06/30 08:49:02;;;;;;;12.70;4.63;;;;;;;22.75;72.86;98483.59;5151151;27;20724;-81
2023/06/30 08:51:47;;;;;;;9.60;3.95;;;;;;;23.30;71.32;98467.03;5151551;27;20419;-80
2023/06/30 08:54:32;;;;;;;10.40;4.22;;;;;;;23.92;69.45;98470.50;5151093;27;20107;-81
2023/06/30 08:57:17;;;;;;;8.95;3.90;;;;;;;24.07;69.18;98462.19;5151788;27;20118;-78
2023/06/30 09:00:02;;;;;;;12.65;4.20;;;;;;;24.35;68.56;98464.84;5133187;27;20049;-80
2023/06/30 09:02:47;;;;;;;8.63;4.10;;;;;;;24.71;67.23;98473.22;5149387;27;20037;-79
2023/06/30 09:05:34;;;;;;;9.00;4.30;;;;;;;24.72;67.12;98475.63;5149787;27;20559;-81
2023/06/30 09:08:23;;;;;;;10.85;4.78;;;;;;;24.99;67.55;98468.59;5149546;27;20148;-79
2023/06/30 09:11:08;;;;;;;10.95;4.40;;;;;;;25.18;65.75;98464.94;5150710;27;20051;-78
2023/06/30 09:14:00;;;;;;;8.15;4.22;;;;;;;25.07;65.89;98475.94;5149246;27;20091;-78
2023/06/30 09:16:45;;;;;;;9.68;3.92;;;;;;;24.78;65.83;98468.28;5135509;27;20090;-78
2023/06/30 09:19:29;;;;;;;5.63;3.25;;;;;;;25.12;65.95;98453.50;5136025;27;20042;-79
2023/06/30 09:22:14;;;;;;;9.20;3.78;;;;;;;24.70;66.40;98461.72;5149752;27;20404;-78
2023/06/30 09:24:59;;;;;;;5.72;3.67;;;;;;;24.87;66.40;98466.44;5150897;27;20095;-77
2023/06/30 09:27:43;;;;;;;6.95;4.03;;;;;;;24.76;65.87;98465.06;5150826;27;20049;-79
2023/06/30 09:30:35;;;;;;;6.03;3.20;;;;;;;24.95;65.81;98463.03;5151500;27;20115;-78
2023/06/30 09:33:20;;;;;;;6.20;3.60;;;;;;;24.19;67.53;98469.72;5135787;27;20073;-79
2023/06/30 09:36:05;;;;;;;6.10;3.25;;;;;;;24.02;67.96;98467.66;5133440;27;20500;-80
2023/06/30 09:38:56;;;;;;;5.75;3.47;;;;;;;23.62;69.18;98468.06;5150053;27;20041;-79
2023/06/30 09:41:45;;;;;;;7.45;3.60;;;;;;;23.29;69.40;98459.28;5150644;27;20046;-80
2023/06/30 09:44:37;;;;;;;6.85;3.67;;;;;;;23.12;70.64;98455.22;5150666;27;20046;-76
2023/06/30 09:47:25;;;;;;;8.07;3.80;;;;;;;23.01;73.21;98453.81;5147858;27;20087;-77
2023/06/30 09:50:10;;;;;;;7.47;4.28;;;;;;;23.02;73.77;98455.41;5135329;27;20048;-77
2023/06/30 09:52:54;;;;;;;8.68;4.10;;;;;;;22.97;74.66;98451.69;5153141;27;20087;-77
2023/06/30 09:55:49;;;;;;;7.60;4.00;;;;;;;23.06;74.00;98445.69;5137988;27;20030;-77
2023/06/30 09:58:33;;;;;;;6.65;4.30;;;;;;;23.08;74.46;98438.94;5153184;27;20053;-77
2023/06/30 10:01:19;;;;;;;9.25;4.35;;;;;;;22.91;75.12;98436.81;5153499;27;20071;-78
2023/06/30 10:04:04;;;;;;;7.13;4.10;;;;;;;22.85;74.71;98445.19;5154513;27;20518;-77
2023/06/30 10:06:50;;;;;;;8.57;3.92;;;;;;;22.71;74.95;98432.56;5139236;27;20547;-77
2023/06/30 10:09:36;;;;;;;6.13;3.70;;;;;;;22.73;76.56;98442.97;5154990;27;20513;-77
2023/06/30 10:12:21;;;;;;;4.30;3.78;;;;;;;22.92;76.27;98451.78;5139199;27;20071;-78
2023/06/30 10:15:08;;;;;;;8.00;3.95;;;;;;;22.83;77.55;98418.75;5152808;27;20134;-78
2023/06/30 10:18:02;;;;;;;7.55;4.00;;;;;;;23.01;78.38;98435.06;5151057;27;20042;-78
2023/06/30 10:20:46;;;;;;;5.45;4.18;;;;;;;22.78;78.84;98419.63;5139421;27;20507;-78
2023/06/30 10:23:32;;;;;;;7.65;3.90;;;;;;;23.04;78.52;98400.47;5138960;27;20483;-78
2023/06/30 10:26:19;;;;;;;5.45;3.83;;;;;;;23.53;77.64;98398.31;5151909;27;20041;-78
2023/06/30 10:29:04;;;;;;;4.80;3.70;;;;;;;23.46;78.67;98405.97;5139607;27;20091;-78
2023/06/30 10:31:49;;;;;;;6.55;3.90;;;;;;;23.75;78.57;98406.78;5153900;27;20110;-78
2023/06/30 10:34:33;;;;;;;5.43;3.88;;;;;;;23.93;77.51;98402.41;5139200;27;20076;-78
2023/06/30 10:37:18;;;;;;;6.78;3.60;;;;;;;24.08;76.63;98399.44;5154622;27;20034;-77
2023/06/30 10:40:22;;;;;;;3.85;3.45;;;;;;;23.64;77.44;98390.09;5154085;27;20088;-78
2023/06/30 10:43:06;;;;;;;5.50;3.70;;;;;;;23.33;79.33;98385.31;5154219;27;20034;-78
2023/06/30 10:46:07;;;;;;;5.93;3.97;;;;;;;23.05;80.34;98374.53;5153142;27;20041;-78
2023/06/30 10:48:55;;;;;;;4.75;3.40;;;;;;;23.12;80.29;98369.56;5154036;27;20038;-78
2023/06/30 10:51:45;;;;;;;5.80;4.07;;;;;;;23.09;79.22;98375.50;5137330;27;20107;-78
2023/06/30 10:54:37;;;;;;;8.40;4.60;;;;;;;23.03;79.35;98374.03;5137897;27;20041;-78
2023/06/30 10:57:25;;;;;;;6.25;3.70;;;;;;;23.19;78.08;98375.34;5153310;27;20135;-77
2023/06/30 11:00:10;;;;;;;4.53;3.53;;;;;;;23.38;77.97;98363.78;5152632;27;20091;-78
2023/06/30 11:02:57;;;;;;;6.68;3.65;;;;;;;23.61;76.80;98364.69;5151887;27;20054;-78
2023/06/30 11:05:43;;;;;;;5.75;3.70;;;;;;;23.98;76.41;98350.56;5153228;27;20408;-78
2023/06/30 11:08:27;;;;;;;5.10;3.50;;;;;;;24.46;74.82;98354.66;5137095;27;20095;-78
2023/06/30 11:11:17;;;;;;;7.63;3.97;;;;;;;24.74;73.92;98354.53;5152313;27;20033;-78
2023/06/30 11:14:05;;;;;;;5.90;3.75;;;;;;;25.18;72.59;98346.75;5154072;27;20042;-79
2023/06/30 11:17:04;;;;;;;6.15;3.58;;;;;;;24.97;72.28;98335.78;5153832;27;20045;-78
2023/06/30 11:20:08;;;;;;;4.80;3.40;;;;;;;25.06;71.90;98341.97;5136879;27;20104;-78
2023/06/30 11:22:58;;;;;;;5.07;3.17;;;;;;;24.47;73.20;98337.47;5153000;27;20037;-78
2023/06/30 11:25:42;;;;;;;3.97;2.95;;;;;;;24.33;74.02;98343.66;5137349;27;20072;-78
2023/06/30 11:28:26;;;;;;;4.13;3.08;;;;;;;24.25;73.96;98344.41;5154059;27;20041;-78
2023/06/30 11:31:11;;;;;;;3.83;2.95;;;;;;;24.44;74.28;98338.84;5153038;27;20091;-78
2023/06/30 11:33:57;;;;;;;3.65;3.15;;;;;;;23.92;75.20;98339.97;5152750;27;20510;-77
2023/06/30 11:36:41;;;;;;;5.10;3.53;;;;;;;23.75;76.70;98335.22;5138028;27;20042;-79
2023/06/30 11:39:25;;;;;;;3.63;2.85;;;;;;;23.92;76.34;98320.41;5152962;27;20046;-78
2023/06/30 11:42:09;;;;;;;4.75;2.95;;;;;;;23.91;78.85;98332.22;5153004;27;20463;-77
2023/06/30 11:44:53;;;;;;;2.90;2.60;;;;;;;23.76;78.08;98311.91;5153313;27;20048;-77
2023/06/30 11:47:46;;;;;;;3.70;2.63;;;;;;;24.64;77.14;98313.44;5150775;27;20118;-78
2023/06/30 11:50:31;;;;;;;3.78;2.55;;;;;;;25.29;75.28;98312.38;5136913;27;20058;-78
2023/06/30 11:53:15;;;;;;;6.22;2.67;;;;;;;25.89;73.18;98315.56;5152727;27;20143;-78
2023/06/30 11:56:02;;;;;;;2.80;1.98;;;;;;;26.11;71.04;98306.56;5152522;27;20053;-77
2023/06/30 11:58:50;;;;;;;2.38;1.90;;;;;;;25.73;70.99;98307.16;5151734;27;20498;-78
2023/06/30 12:01:34;;;;;;;2.38;2.15;;;;;;;25.77;71.31;98303.53;5137088;27;20071;-78
2023/06/30 12:04:18;;;;;;;2.55;2.00;;;;;;;25.85;70.52;98298.47;5152614;27;20087;-78
2023/06/30 12:07:04;;;;;;;4.10;2.33;;;;;;;25.65;71.27;98300.66;5137357;27;20049;-78
2023/06/30 12:09:59;;;;;;;2.33;2.03;;;;;;;26.05;71.21;98291.72;5136151;27;20094;-78
2023/06/30 12:12:52;;;;;;;3.95;2.30;;;;;;;26.10;70.47;98284.25;5152229;27;20393;-78
2023/06/30 12:15:36;;;;;;;2.60;2.40;;;;;;;26.34;71.11;98280.34;5155723;27;20072;-79
2023/06/30 12:18:36;;;;;;;2.75;2.03;;;;;;;26.74;70.44;98276.59;5137741;27;20045;-78
2023/06/30 12:21:20;;;;;;;2.50;2.03;;;;;;;26.54;71.98;98270.03;5136696;27;20041;-79
2023/06/30 12:24:04;;;;;;;2.35;1.77;;;;;;;27.15;69.80;98266.38;5134772;27;20045;-79
2023/06/30 12:26:49;;;;;;;3.75;2.10;;;;;;;27.61;68.28;98272.00;5151765;27;20117;-81
2023/06/30 12:29:35;;;;;;;3.05;2.00;;;;;;;27.90;67.83;98272.25;5150000;27;20462;-79
2023/06/30 12:32:20;;;;;;;4.40;2.30;;;;;;;27.93;66.50;98263.53;5149082;27;20469;-78
2023/06/30 12:35:07;;;;;;;4.75;2.40;;;;;;;27.80;65.95;98268.84;5150852;27;20114;-78
2023/06/30 12:37:51;;;;;;;2.30;2.10;;;;;;;28.19;66.37;98263.31;5150705;27;20087;-78
2023/06/30 12:40:35;;;;;;;2.72;2.45;;;;;;;28.10;65.28;98254.50;5149714;27;20599;-80
2023/06/30 12:43:19;;;;;;;3.15;2.55;;;;;;;27.93;65.81;98247.34;5151092;27;20581;-78
2023/06/30 12:46:03;;;;;;;5.05;2.90;;;;;;;27.93;65.90;98241.97;5147310;27;20113;-75
2023/06/30 12:48:47;;;;;;;4.25;3.22;;;;;;;27.55;66.41;98237.47;5150593;27;20129;-77
2023/06/30 12:51:32;;;;;;;3.78;3.00;;;;;;;27.25;67.08;98230.19;5148142;27;20037;-77
2023/06/30 12:54:17;;;;;;;4.68;3.28;;;;;;;26.87;67.95;98221.00;5151372;27;20404;-78
2023/06/30 12:57:01;;;;;;;5.07;2.85;;;;;;;26.76;67.87;98227.84;5135379;27;20037;-77